Time;durP1;ratioP1;P1;durP2;ratioP2;P2;SDS_P1;SDS_P2;PMS_P1;PMS_P2;Temp;Humidity;BMP_temperature;BMP_pressure;BME280_temperature;BME280_humidity;BME280_pressure;Samples;Min_cycle;Max_cycle;Signal;HPM_P1;HPM_P2
2022/12/01 00:02:48;;;;;;;129.70;74.28;;;;;;;4.69;100.00;102817.03;10579654;28;20036;-71
2022/12/01 00:07:49;;;;;;;138.38;70.63;;;;;;;4.61;100.00;102798.78;10581005;27;20363;-71
2022/12/01 00:12:49;;;;;;;127.95;72.78;;;;;;;4.68;100.00;102807.19;10561148;28;20039;-72
2022/12/01 00:17:50;;;;;;;131.68;71.97;;;;;;;4.62;100.00;102790.44;10578783;28;20046;-71
2022/12/01 00:22:50;;;;;;;135.40;73.78;;;;;;;4.55;100.00;102786.69;10578067;28;20306;-71
2022/12/01 00:27:51;;;;;;;134.55;72.70;;;;;;;4.65;100.00;102800.16;10561896;28;20043;-71
2022/12/01 00:32:51;;;;;;;139.70;70.85;;;;;;;4.59;100.00;102801.69;10562338;27;20040;-72
2022/12/01 00:37:53;;;;;;;135.80;72.47;;;;;;;4.60;100.00;102800.66;10587640;27;21495;-71
2022/12/01 00:42:53;;;;;;;134.57;71.18;;;;;;;4.61;100.00;102807.84;10587076;27;20035;-71
2022/12/01 00:47:54;;;;;;;138.23;72.03;;;;;;;4.47;100.00;102792.13;10567746;27;20032;-71
2022/12/01 00:52:54;;;;;;;134.02;72.50;;;;;;;4.58;100.00;102810.88;10551586;27;20043;-71
2022/12/01 00:57:55;;;;;;;129.27;71.80;;;;;;;4.60;100.00;102816.19;10584987;27;20418;-71
2022/12/01 01:02:55;;;;;;;134.80;71.30;;;;;;;4.57;100.00;102801.00;10587201;27;20372;-71
2022/12/01 01:07:55;;;;;;;131.48;69.95;;;;;;;4.59;100.00;102804.44;10585528;27;20485;-71
2022/12/01 01:12:56;;;;;;;135.15;71.85;;;;;;;4.59;100.00;102807.16;10567291;27;20403;-71
2022/12/01 01:17:56;;;;;;;139.43;74.05;;;;;;;4.47;100.00;102792.13;10584263;27;20654;-70
2022/12/01 01:22:57;;;;;;;141.32;77.82;;;;;;;4.58;100.00;102799.97;10584716;27;20059;-71
2022/12/01 01:27:57;;;;;;;134.52;72.55;;;;;;;4.53;100.00;102798.78;10567392;27;20093;-72
2022/12/01 01:32:58;;;;;;;148.32;76.00;;;;;;;4.52;100.00;102806.09;10549645;27;20455;-71
2022/12/01 01:37:58;;;;;;;137.40;74.97;;;;;;;4.51;100.00;102815.31;10584335;27;20039;-71
2022/12/01 01:42:59;;;;;;;143.38;74.35;;;;;;;4.49;100.00;102811.06;10583345;27;20032;-72
2022/12/01 01:47:59;;;;;;;130.85;73.38;;;;;;;4.47;100.00;102819.41;10582926;27;20122;-71
2022/12/01 01:53:01;;;;;;;131.77;70.78;;;;;;;4.47;100.00;102819.41;10582991;27;20059;-72
2022/12/01 01:58:03;;;;;;;131.50;70.13;;;;;;;4.44;100.00;102814.25;10583510;27;20115;-71
2022/12/01 02:03:03;;;;;;;140.25;73.25;;;;;;;4.43;100.00;102820.75;10549526;27;20035;-71
2022/12/01 02:08:04;;;;;;;134.35;73.32;;;;;;;4.48;100.00;102823.81;10565257;28;20040;-71
2022/12/01 02:13:11;;;;;;;144.10;77.18;;;;;;;4.51;100.00;102825.38;10557008;28;20050;-69
2022/12/01 02:18:26;;;;;;;138.38;73.97;;;;;;;4.53;100.00;102826.91;10538670;28;20495;-72
2022/12/01 02:23:45;;;;;;;143.95;72.10;;;;;;;4.54;100.00;102825.03;10526021;28;20044;-71
2022/12/01 02:28:57;;;;;;;133.52;70.60;;;;;;;4.50;100.00;102808.13;10583994;27;20043;-72
2022/12/01 02:34:03;;;;;;;144.00;73.93;;;;;;;4.40;100.00;102793.78;10548941;27;20032;-71
2022/12/01 02:39:17;;;;;;;139.10;69.85;;;;;;;4.52;100.00;102817.00;10543546;27;20035;-71
2022/12/01 02:44:20;;;;;;;147.27;76.05;;;;;;;4.37;100.00;102791.41;10545300;27;20048;-71
2022/12/01 02:49:25;;;;;;;130.05;70.75;;;;;;;4.43;100.00;102796.22;10563912;28;20095;-71
2022/12/01 02:54:27;;;;;;;132.13;72.82;;;;;;;4.47;100.00;102808.50;10581313;28;20039;-71
2022/12/01 02:59:28;;;;;;;137.15;70.82;;;;;;;4.55;100.00;102808.50;10579789;27;20058;-71
2022/12/01 03:04:32;;;;;;;138.30;73.43;;;;;;;4.55;100.00;102816.69;10579331;27;20043;-71
2022/12/01 03:09:54;;;;;;;144.35;75.03;;;;;;;4.53;100.00;102818.72;10580344;28;20115;-72
2022/12/01 03:14:59;;;;;;;133.73;69.80;;;;;;;4.52;100.00;102811.56;10537173;28;20043;-72
2022/12/01 03:20:07;;;;;;;142.38;75.50;;;;;;;4.43;100.00;102796.22;10520996;28;20036;-71
2022/12/01 03:25:08;;;;;;;147.45;74.38;;;;;;;4.49;100.00;102803.72;10538247;28;20044;-72
2022/12/01 03:30:09;;;;;;;148.32;74.55;;;;;;;4.49;100.00;102805.59;10548506;28;20046;-72
2022/12/01 03:35:31;;;;;;;154.77;73.28;;;;;;;4.37;100.00;102783.22;10562452;28;20040;-72
2022/12/01 03:40:32;;;;;;;153.48;75.63;;;;;;;4.53;100.00;102810.56;10545880;28;20441;-72
2022/12/01 03:45:41;;;;;;;144.50;72.38;;;;;;;4.37;100.00;102783.22;10563004;28;20031;-72
2022/12/01 03:51:04;;;;;;;136.95;73.85;;;;;;;4.51;100.00;102804.41;10580259;28;20035;-72
2022/12/01 03:56:05;;;;;;;155.48;75.90;;;;;;;4.51;100.00;102809.88;10551121;28;20067;-72
2022/12/01 04:01:06;;;;;;;157.02;75.20;;;;;;;4.44;100.00;102803.34;10561732;28;20245;-72
2022/12/01 04:06:06;;;;;;;159.88;76.00;;;;;;;4.48;100.00;102807.44;10579928;28;20032;-72
2022/12/01 04:16:26;;;;;;;161.93;80.40;;;;;;;4.43;100.00;102796.22;10588794;27;20055;-72
2022/12/01 04:21:26;;;;;;;151.73;81.60;;;;;;;4.31;100.00;102792.06;10587103;27;20040;-72
2022/12/01 04:26:28;;;;;;;140.75;72.68;;;;;;;4.40;100.00;102808.31;10585935;27;20135;-72
2022/12/01 04:31:28;;;;;;;182.93;86.43;;;;;;;4.46;100.00;102812.22;10585132;27;20139;-72
2022/12/01 04:36:30;;;;;;;165.10;79.45;;;;;;;4.43;100.00;102807.13;10586502;27;20032;-71
2022/12/01 04:41:30;;;;;;;159.52;80.22;;;;;;;4.47;100.00;102808.50;10568810;28;20526;-72
2022/12/01 04:46:31;;;;;;;161.50;78.72;;;;;;;4.49;100.00;102817.34;10588010;27;20031;-72
2022/12/01 04:51:31;;;;;;;168.30;80.18;;;;;;;4.49;100.00;102822.81;10585764;27;20032;-72
2022/12/01 04:56:32;;;;;;;153.00;75.28;;;;;;;4.46;100.00;102812.22;10586260;27;20448;-72
2022/12/01 05:01:33;;;;;;;162.65;80.03;;;;;;;4.50;100.00;102819.06;10585015;27;20031;-72
2022/12/01 05:06:33;;;;;;;166.00;82.65;;;;;;;4.49;100.00;102817.34;10568860;27;20058;-72
2022/12/01 05:11:34;;;;;;;167.10;80.70;;;;;;;4.41;100.00;102803.69;10585140;27;20053;-71
2022/12/01 05:16:34;;;;;;;155.63;76.68;;;;;;;4.47;100.00;102813.94;10574264;27;20414;-71
2022/12/01 05:21:35;;;;;;;181.63;80.70;;;;;;;4.56;100.00;102828.44;10581165;27;20100;-72
2022/12/01 05:26:35;;;;;;;149.15;76.15;;;;;;;4.55;100.00;102822.16;10584785;27;20060;-71
2022/12/01 05:31:36;;;;;;;164.65;79.47;;;;;;;4.48;100.00;102809.34;10566390;27;20040;-71
2022/12/01 05:36:36;;;;;;;176.10;78.00;;;;;;;4.53;100.00;102813.28;10566661;27;20506;-72
2022/12/01 05:41:37;;;;;;;166.18;76.78;;;;;;;4.54;100.00;102820.44;10566477;27;20036;-71
2022/12/01 05:46:37;;;;;;;166.00;74.97;;;;;;;4.51;100.00;102818.03;10554814;27;20036;-71
2022/12/01 05:51:38;;;;;;;163.55;75.28;;;;;;;4.41;100.00;102803.69;10583127;27;20057;-72
2022/12/01 05:56:38;;;;;;;161.98;70.30;;;;;;;4.55;100.00;102822.16;10564766;27;20050;-72
2022/12/01 06:01:39;;;;;;;162.55;74.45;;;;;;;4.54;100.00;102828.59;10583790;27;20032;-72
2022/12/01 06:06:39;;;;;;;178.07;75.72;;;;;;;4.51;100.00;102826.22;10583917;27;20055;-72
2022/12/01 06:11:40;;;;;;;162.35;75.13;;;;;;;4.55;100.00;102833.06;10582841;27;20399;-71
2022/12/01 06:16:40;;;;;;;158.38;77.05;;;;;;;4.46;100.00;102806.75;10565820;28;20048;-72
2022/12/01 06:21:41;;;;;;;160.50;71.28;;;;;;;4.49;100.00;102824.69;10584022;27;20046;-71
2022/12/01 06:26:41;;;;;;;165.02;74.47;;;;;;;4.55;100.00;102835.78;10580448;27;20040;-72
2022/12/01 06:31:41;;;;;;;157.55;72.03;;;;;;;4.57;100.00;102836.47;10580993;27;20035;-72
2022/12/01 06:36:42;;;;;;;160.07;72.13;;;;;;;4.54;100.00;102833.22;10583532;28;20038;-72
2022/12/01 06:41:42;;;;;;;160.35;71.80;;;;;;;4.52;100.00;102829.81;10582823;27;20604;-72
2022/12/01 06:46:43;;;;;;;167.70;69.88;;;;;;;4.52;100.00;102827.91;10581089;27;20035;-71
2022/12/01 06:51:44;;;;;;;170.10;72.03;;;;;;;4.58;100.00;102843.63;10563911;28;20115;-74
2022/12/01 06:56:44;;;;;;;146.25;67.28;;;;;;;4.51;100.00;102830.84;10562551;27;20043;-69
2022/12/01 07:01:45;;;;;;;141.43;66.32;;;;;;;4.52;100.00;102843.44;10581327;27;20085;-72
2022/12/01 07:06:45;;;;;;;153.07;65.93;;;;;;;4.41;100.00;102833.69;10580451;28;20058;-72
2022/12/01 07:11:46;;;;;;;143.35;67.95;;;;;;;4.52;100.00;102848.91;10580512;27;20073;-72
2022/12/01 07:16:46;;;;;;;145.32;66.80;;;;;;;4.51;100.00;102863.56;10561981;28;20035;-72
2022/12/01 07:21:47;;;;;;;140.70;63.33;;;;;;;4.49;100.00;102873.78;10580251;28;20032;-72
2022/12/01 07:26:48;;;;;;;142.95;64.72;;;;;;;4.51;100.00;102869.88;10562042;28;20046;-71
2022/12/01 07:31:48;;;;;;;138.88;66.72;;;;;;;4.40;100.00;102860.13;10580035;28;20043;-72
2022/12/01 07:36:49;;;;;;;139.05;65.00;;;;;;;4.39;100.00;102860.28;10580215;28;20051;-72
2022/12/01 07:41:49;;;;;;;144.80;68.55;;;;;;;4.49;100.00;102876.53;10579221;28;20069;-69
2022/12/01 07:46:50;;;;;;;136.70;67.00;;;;;;;4.44;100.00;102875.13;10591102;27;20031;-72
2022/12/01 07:51:50;;;;;;;137.05;64.28;;;;;;;4.53;100.00;102884.19;10588558;27;20020;-71
2022/12/01 07:56:51;;;;;;;143.18;68.38;;;;;;;4.58;100.00;102898.19;10588015;27;20036;-71
2022/12/01 08:01:51;;;;;;;129.63;65.72;;;;;;;4.60;100.00;102892.56;10590606;27;20040;-71
2022/12/01 08:06:52;;;;;;;142.15;67.75;;;;;;;4.53;100.00;102867.84;10588218;27;20411;-72
2022/12/01 08:11:52;;;;;;;145.18;68.15;;;;;;;4.69;100.00;102897.03;10588361;27;20027;-72
2022/12/01 08:16:52;;;;;;;133.40;66.88;;;;;;;4.65;100.00;102880.16;10588848;27;20452;-72
2022/12/01 08:21:53;;;;;;;132.65;66.72;;;;;;;4.77;100.00;102907.13;10552534;27;20462;-71
2022/12/01 08:26:53;;;;;;;136.90;70.40;;;;;;;4.77;100.00;102898.94;10586778;27;20172;-71
2022/12/01 08:31:56;;;;;;;138.77;67.35;;;;;;;4.86;100.00;102914.31;10587147;27;20047;-72
2022/12/01 08:36:57;;;;;;;137.60;70.35;;;;;;;4.88;100.00;102914.13;10570209;27;20046;-72
2022/12/01 08:41:57;;;;;;;130.75;68.97;;;;;;;4.81;100.00;102886.66;10587110;27;20042;-72
2022/12/01 08:46:58;;;;;;;140.13;65.70;;;;;;;4.94;100.00;102899.81;10585654;27;20051;-72
2022/12/01 08:51:58;;;;;;;130.82;69.13;;;;;;;4.95;100.00;102905.13;10586757;27;20101;-72
2022/12/01 08:56:58;;;;;;;122.85;66.90;;;;;;;4.92;100.00;102897.28;10585915;27;20073;-72
2022/12/01 09:01:59;;;;;;;118.18;64.18;;;;;;;5.03;100.00;102907.88;10562499;27;20029;-72
2022/12/01 09:06:59;;;;;;;117.28;63.70;;;;;;;5.01;100.00;102909.06;10570959;27;20616;-72
2022/12/01 09:12:00;;;;;;;125.10;66.32;;;;;;;5.02;100.00;102900.72;10567566;27;20484;-72
2022/12/01 09:17:00;;;;;;;123.80;65.65;;;;;;;4.92;100.00;102889.09;10563115;27;20043;-71
2022/12/01 09:22:01;;;;;;;126.50;69.50;;;;;;;5.00;100.00;102896.41;10545987;27;20028;-72
2022/12/01 09:27:02;;;;;;;109.78;62.58;;;;;;;5.03;100.00;102902.41;10547994;28;20490;-72
2022/12/01 09:32:02;;;;;;;106.90;58.45;;;;;;;5.17;100.00;102908.25;10556216;28;20039;-72
2022/12/01 09:37:03;;;;;;;108.57;60.60;;;;;;;5.23;100.00;102913.03;10558807;27;20036;-72
2022/12/01 09:42:15;;;;;;;107.70;60.00;;;;;;;5.16;100.00;102879.22;10585616;27;20043;-72
2022/12/01 09:47:23;;;;;;;106.03;55.80;;;;;;;5.39;100.00;102906.72;10557897;27;20481;-72
2022/12/01 09:52:26;;;;;;;101.85;54.50;;;;;;;5.37;100.00;102901.41;10584740;27;20387;-72
2022/12/01 09:57:37;;;;;;;94.18;50.45;;;;;;;5.47;100.00;102893.91;10583066;27;20042;-72
2022/12/01 10:02:51;;;;;;;82.28;46.30;;;;;;;5.50;100.00;102892.72;10583446;27;20042;-72
2022/12/01 10:07:57;;;;;;;81.63;45.55;;;;;;;5.55;100.00;102889.47;10573569;27;20040;-72
2022/12/01 10:12:59;;;;;;;88.25;48.72;;;;;;;5.62;100.00;102885.03;10585256;27;20543;-72
2022/12/01 10:18:08;;;;;;;76.50;45.45;;;;;;;5.58;100.00;102886.38;10622789;27;20328;-72
2022/12/01 10:23:12;;;;;;;74.25;45.28;;;;;;;5.50;100.00;102881.81;10625148;27;20051;-72
2022/12/01 10:28:38;;;;;;;67.45;40.65;;;;;;;5.50;100.00;102872.72;10624766;27;20035;-73
2022/12/01 10:33:53;;;;;;;71.90;42.58;;;;;;;5.47;100.00;102872.03;10622399;27;20102;-72
2022/12/01 10:38:53;;;;;;;66.32;41.25;;;;;;;5.54;100.00;102872.25;10624040;27;20031;-73
2022/12/01 10:43:58;;;;;;;69.40;38.92;;;;;;;5.62;100.00;102879.56;10588257;27;20031;-72
2022/12/01 10:48:59;;;;;;;68.20;41.25;;;;;;;5.63;100.00;102864.88;10605679;27;20038;-72
2022/12/01 10:54:06;;;;;;;72.10;42.10;;;;;;;5.30;100.00;102803.97;10623862;27;20042;-72
2022/12/01 10:59:20;;;;;;;;;;;;;;;5.77;100.00;102866.91;10624905;27;20042;-72
2022/12/01 11:04:34;;;;;;;64.45;38.95;;;;;;;5.80;100.00;102866.53;10619398;27;20420;-71
2022/12/01 11:09:35;;;;;;;68.57;38.97;;;;;;;5.61;100.00;102828.69;10563401;28;20502;-72
2022/12/01 11:14:44;;;;;;;61.70;35.58;;;;;;;5.76;100.00;102856.16;10582965;27;20065;-72
2022/12/01 11:19:45;;;;;;;62.70;37.33;;;;;;;5.45;100.00;102803.06;10580485;28;20044;-72
2022/12/01 11:24:51;;;;;;;65.13;38.63;;;;;;;5.78;100.00;102863.13;10563999;28;20594;-73
2022/12/01 11:29:57;;;;;;;59.17;35.45;;;;;;;5.97;100.00;102847.41;10581267;28;20048;-73
2022/12/01 11:35:01;;;;;;;56.17;34.78;;;;;;;5.97;100.00;102828.28;10563326;28;20031;-73
2022/12/01 11:40:15;;;;;;;57.45;31.80;;;;;;;6.00;100.00;102836.97;10563255;27;20067;-73
2022/12/01 11:45:18;;;;;;;54.10;32.53;;;;;;;5.98;100.00;102830.00;10538629;28;20818;-73
2022/12/01 11:50:23;;;;;;;56.75;32.38;;;;;;;5.82;100.00;102828.97;10540068;28;20174;-73
2022/12/01 11:55:26;;;;;;;52.38;30.77;;;;;;;5.76;100.00;102843.31;10521323;28;20036;-73
2022/12/01 12:00:29;;;;;;;57.67;33.40;;;;;;;5.71;100.00;102832.06;10548732;28;20039;-73
2022/12/01 12:05:38;;;;;;;62.10;32.67;;;;;;;5.73;100.00;102838.22;10578819;27;20467;-73
2022/12/01 12:10:51;;;;;;;55.45;31.63;;;;;;;5.74;100.00;102830.88;10579139;28;20051;-73
2022/12/01 12:15:55;;;;;;;63.03;35.25;;;;;;;5.80;100.00;102824.69;10581392;28;20431;-73
2022/12/01 12:21:23;;;;;;;60.60;33.20;;;;;;;5.66;100.00;102804.41;10581981;28;20057;-73
2022/12/01 12:26:26;;;;;;;65.03;33.40;;;;;;;5.68;100.00;102818.75;10536521;28;20040;-73
2022/12/01 12:31:49;;;;;;;71.28;36.53;;;;;;;5.57;100.00;102811.75;10544779;28;20093;-74
2022/12/01 12:37:28;;;;;;;71.90;40.15;;;;;;;5.59;100.00;102817.06;10541686;27;20043;-72
2022/12/01 12:42:54;;;;;;;74.65;39.00;;;;;;;5.58;100.00;102818.94;10556777;27;20034;-73
2022/12/01 12:48:11;;;;;;;84.00;44.22;;;;;;;5.62;100.00;102816.72;10570623;27;20055;-74
2022/12/01 12:53:13;;;;;;;;;;;;;;;5.65;100.00;102808.19;10589339;27;20067;-73
2022/12/01 12:58:18;;;;;;;77.28;43.40;;;;;;;5.54;100.00;102801.19;10585714;27;19926;-73
2022/12/01 13:03:37;;;;;;;80.45;42.60;;;;;;;5.56;100.00;102821.00;10570149;27;20066;-73
2022/12/01 13:08:44;;;;;;;84.95;45.08;;;;;;;5.49;100.00;102808.19;10585087;27;20125;-73
2022/12/01 13:13:47;;;;;;;89.35;45.63;;;;;;;5.44;100.00;102817.78;10569057;27;20031;-73
2022/12/01 13:19:18;;;;;;;90.43;46.72;;;;;;;5.10;100.00;102760.59;10585670;27;20043;-72
2022/12/01 13:24:20;;;;;;;91.38;45.33;;;;;;;5.39;100.00;102820.16;10579348;27;20044;-72
2022/12/01 13:29:21;;;;;;;82.57;44.78;;;;;;;5.43;100.00;102809.75;10584311;27;20035;-72
2022/12/01 13:34:29;;;;;;;85.18;45.35;;;;;;;5.42;100.00;102797.97;10567220;27;20035;-72
2022/12/01 13:39:34;;;;;;;78.50;41.65;;;;;;;5.47;100.00;102803.75;10585352;27;20039;-72
2022/12/01 13:44:38;;;;;;;76.00;40.85;;;;;;;5.51;100.00;102807.00;10566930;27;20097;-72
2022/12/01 13:49:43;;;;;;;85.97;42.97;;;;;;;5.36;100.00;102775.97;10584754;27;20036;-72
2022/12/01 13:55:06;;;;;;;77.13;40.90;;;;;;;5.39;100.00;102802.91;10550667;27;20036;-72
2022/12/01 14:00:29;;;;;;;76.82;41.55;;;;;;;5.33;100.00;102804.44;10582233;27;20040;-72
2022/12/01 14:05:38;;;;;;;69.80;38.67;;;;;;;5.26;100.00;102815.22;10582045;27;20035;-74
2022/12/01 14:10:39;;;;;;;67.25;38.78;;;;;;;5.10;100.00;102807.03;10584059;27;20031;-74
2022/12/01 14:15:41;;;;;;;73.45;38.03;;;;;;;5.10;100.00;102808.91;10582708;27;20039;-75
2022/12/01 14:20:45;;;;;;;71.32;37.78;;;;;;;4.94;100.00;102798.81;10583148;28;20042;-75
2022/12/01 14:25:57;;;;;;;77.57;40.70;;;;;;;4.91;100.00;102812.81;10544099;28;20052;-75
2022/12/01 14:31:01;;;;;;;72.00;39.65;;;;;;;4.83;100.00;102816.38;10555988;28;20044;-75
2022/12/01 14:36:03;;;;;;;76.75;40.45;;;;;;;4.88;100.00;102833.13;10542546;28;20036;-75
2022/12/01 14:41:08;;;;;;;77.60;39.40;;;;;;;4.82;100.00;102818.28;10574342;27;20060;-75
2022/12/01 14:46:09;;;;;;;73.50;40.75;;;;;;;4.79;100.00;102801.38;10547863;27;20075;-75
2022/12/01 14:51:21;;;;;;;74.90;41.45;;;;;;;4.74;100.00;102803.78;10564376;28;20035;-79
2022/12/01 14:56:22;;;;;;;86.15;44.70;;;;;;;4.67;100.00;102791.81;10580871;27;20043;-78
2022/12/01 15:01:22;;;;;;;80.32;44.10;;;;;;;4.65;100.00;102795.56;10545502;28;20419;-76
2022/12/01 15:06:24;;;;;;;78.45;42.08;;;;;;;4.63;100.00;102799.47;10547583;28;20032;-76
2022/12/01 15:11:25;;;;;;;87.75;45.25;;;;;;;4.60;100.00;102802.53;10548323;27;20069;-77
2022/12/01 15:16:29;;;;;;;79.45;45.83;;;;;;;4.43;100.00;102775.22;10582054;27;20085;-76
2022/12/01 15:21:30;;;;;;;84.47;44.80;;;;;;;4.51;100.00;102804.41;10580809;28;20422;-77
2022/12/01 15:26:35;;;;;;;87.70;47.63;;;;;;;4.45;100.00;102791.44;10579305;27;20040;-75
2022/12/01 15:31:35;;;;;;;78.70;42.10;;;;;;;4.47;100.00;102802.19;10529440;28;20043;-75
2022/12/01 15:36:36;;;;;;;95.32;47.85;;;;;;;4.46;100.00;102795.84;10563911;28;20066;-76
2022/12/01 15:41:36;;;;;;;85.97;46.85;;;;;;;4.32;100.00;102791.91;10579992;28;20045;-76
2022/12/01 15:46:37;;;;;;;81.95;44.67;;;;;;;4.40;100.00;102815.59;10565110;27;20071;-76
2022/12/01 15:51:37;;;;;;;85.57;47.33;;;;;;;4.36;100.00;102811.50;10556010;28;20060;-74
2022/12/01 15:56:38;;;;;;;82.95;45.25;;;;;;;4.34;100.00;102813.53;10552729;28;20043;-73
2022/12/01 16:01:40;;;;;;;92.50;46.65;;;;;;;4.29;100.00;102821.38;10516010;28;20038;-73
2022/12/01 16:06:40;;;;;;;90.55;47.42;;;;;;;4.27;100.00;102832.44;10544208;27;20738;-73
2022/12/01 16:12:04;;;;;;;89.28;44.95;;;;;;;4.25;100.00;102838.06;10553335;27;20557;-73
2022/12/01 16:17:06;;;;;;;80.55;44.40;;;;;;;4.22;100.00;102835.66;10541329;27;20055;-73
2022/12/01 16:22:09;;;;;;;83.78;45.65;;;;;;;4.26;100.00;102838.94;10543980;27;20039;-73
2022/12/01 16:27:23;;;;;;;85.65;45.00;;;;;;;4.24;100.00;102830.91;10560308;27;20035;-73
2022/12/01 16:32:31;;;;;;;87.45;45.05;;;;;;;4.26;100.00;102828.03;10544932;27;20050;-73
2022/12/01 16:37:32;;;;;;;90.93;46.95;;;;;;;4.24;100.00;102819.16;10548795;27;20466;-73
2022/12/01 16:42:32;;;;;;;86.22;44.60;;;;;;;4.21;100.00;102819.47;10561901;27;20059;-73
2022/12/01 16:47:33;;;;;;;78.43;42.47;;;;;;;3.92;100.00;102762.63;10550187;28;20048;-73
2022/12/01 16:52:33;;;;;;;80.07;43.28;;;;;;;4.19;100.00;102813.31;10528416;27;20032;-75
2022/12/01 16:57:34;;;;;;;86.72;44.05;;;;;;;4.20;100.00;102818.63;10516872;28;20044;-74
2022/12/01 17:02:34;;;;;;;78.85;42.42;;;;;;;4.22;100.00;102835.66;10515964;27;20135;-74
2022/12/01 17:07:35;;;;;;;76.78;41.58;;;;;;;4.21;100.00;102825.78;10540789;27;20052;-74
2022/12/01 17:12:35;;;;;;;80.70;43.70;;;;;;;4.15;100.00;102820.97;10539812;27;20044;-74
2022/12/01 17:17:36;;;;;;;83.82;41.40;;;;;;;4.15;100.00;102823.69;10502853;27;20043;-74
2022/12/01 17:22:36;;;;;;;84.88;45.83;;;;;;;4.11;100.00;102827.78;10529584;27;20049;-74
2022/12/01 17:27:37;;;;;;;85.70;46.33;;;;;;;4.07;100.00;102839.16;10577782;27;20072;-74
2022/12/01 17:32:37;;;;;;;86.50;41.83;;;;;;;3.66;100.00;102782.59;10613953;27;20038;-74
2022/12/01 17:37:38;;;;;;;91.07;45.28;;;;;;;3.97;100.00;102831.97;10626929;27;20038;-74
2022/12/01 17:42:38;;;;;;;81.10;40.97;;;;;;;3.86;100.00;102842.28;10604812;27;20054;-74
2022/12/01 17:47:39;;;;;;;91.50;43.45;;;;;;;3.86;100.00;102848.59;10592574;27;20036;-75
2022/12/01 17:52:39;;;;;;;87.55;44.10;;;;;;;3.77;100.00;102836.78;10618843;27;21325;-75
2022/12/01 17:57:40;;;;;;;82.00;41.95;;;;;;;3.77;100.00;102844.97;10607750;27;20559;-74
2022/12/01 18:02:40;;;;;;;83.20;45.65;;;;;;;3.81;100.00;102854.53;10590140;27;20704;-73
2022/12/01 18:07:41;;;;;;;78.28;40.33;;;;;;;3.73;100.00;102838.13;10626407;27;20068;-74
2022/12/01 18:12:41;;;;;;;79.28;41.35;;;;;;;3.73;100.00;102848.19;10606754;27;20047;-75
2022/12/01 18:17:42;;;;;;;79.53;40.95;;;;;;;3.70;100.00;102848.50;10561846;27;20044;-75
2022/12/01 18:22:42;;;;;;;79.82;41.55;;;;;;;3.72;100.00;102863.69;10589331;27;20064;-74
2022/12/01 18:27:42;;;;;;;80.00;40.25;;;;;;;3.56;100.00;102847.22;10606348;27;20031;-75
2022/12/01 18:32:43;;;;;;;84.38;40.65;;;;;;;3.69;100.00;102865.88;10623316;27;20035;-73
2022/12/01 18:37:43;;;;;;;81.18;41.63;;;;;;;3.68;100.00;102867.75;10622978;27;20053;-74
2022/12/01 18:42:45;;;;;;;82.28;40.45;;;;;;;3.64;100.00;102860.91;10602917;27;20047;-74
2022/12/01 18:47:45;;;;;;;76.70;37.40;;;;;;;3.60;100.00;102849.47;10615598;27;20039;-73
2022/12/01 18:52:46;;;;;;;71.88;38.13;;;;;;;3.66;100.00;102853.44;10618001;27;20043;-74
2022/12/01 18:57:46;;;;;;;75.60;38.53;;;;;;;3.71;100.00;102861.97;10623385;27;20077;-74
2022/12/01 19:02:47;;;;;;;80.18;39.38;;;;;;;3.69;100.00;102855.81;10622439;27;20038;-74
2022/12/01 19:07:47;;;;;;;70.15;34.78;;;;;;;3.66;100.00;102853.44;10621902;27;20034;-73
2022/12/01 19:12:48;;;;;;;69.22;34.42;;;;;;;3.69;100.00;102864.00;10621302;27;20122;-74
2022/12/01 19:17:48;;;;;;;66.07;34.83;;;;;;;3.68;100.00;102862.28;10611896;27;20050;-74
2022/12/01 19:22:49;;;;;;;70.75;35.67;;;;;;;3.28;100.00;102795.63;10575073;27;20088;-73
2022/12/01 19:27:50;;;;;;;68.13;33.73;;;;;;;3.62;100.00;102852.03;10596880;27;20031;-74
2022/12/01 19:32:50;;;;;;;63.80;31.07;;;;;;;3.56;100.00;102847.22;10583025;27;20027;-74
2022/12/01 19:37:51;;;;;;;55.20;28.23;;;;;;;3.57;100.00;102866.09;10586277;28;20043;-72
2022/12/01 19:42:51;;;;;;;56.03;28.42;;;;;;;3.45;100.00;102842.88;10590073;27;20073;-74
2022/12/01 19:47:52;;;;;;;54.05;27.20;;;;;;;3.47;100.00;102842.72;10570355;27;20041;-74
2022/12/01 19:52:52;;;;;;;47.72;25.30;;;;;;;3.42;100.00;102852.22;10589523;27;20035;-73
2022/12/01 19:57:53;;;;;;;50.10;24.93;;;;;;;3.36;100.00;102852.00;10589745;27;20491;-74
2022/12/01 20:02:53;;;;;;;44.67;22.73;;;;;;;3.13;100.00;102821.69;10589177;27;20053;-74
2022/12/01 20:07:54;;;;;;;47.10;23.43;;;;;;;3.21;100.00;102844.41;10588551;27;20036;-74
2022/12/01 20:12:54;;;;;;;48.57;23.47;;;;;;;3.19;100.00;102842.84;10586814;27;20036;-75
2022/12/01 20:17:55;;;;;;;47.23;24.07;;;;;;;3.06;100.00;102845.97;10587127;27;20057;-71
2022/12/01 20:22:56;;;;;;;44.20;22.03;;;;;;;3.08;100.00;102840.34;10588655;27;20044;-74
2022/12/01 20:27:56;;;;;;;45.58;23.23;;;;;;;2.77;100.00;102797.22;10555235;27;20091;-74
2022/12/01 20:32:57;;;;;;;47.22;23.42;;;;;;;2.99;100.00;102836.72;10584745;27;20024;-73
2022/12/01 20:37:57;;;;;;;45.08;24.45;;;;;;;2.83;100.00;102818.34;10577125;27;20106;-74
2022/12/01 20:42:58;;;;;;;52.83;25.50;;;;;;;2.90;100.00;102848.53;10587178;27;20028;-74
2022/12/01 20:47:58;;;;;;;55.37;27.07;;;;;;;2.87;100.00;102846.97;10587107;27;20253;-73
2022/12/01 20:52:59;;;;;;;53.83;25.87;;;;;;;2.86;100.00;102848.00;10618583;27;20936;-74
2022/12/01 20:58:01;;;;;;;52.53;24.58;;;;;;;2.81;100.00;102836.69;10611439;27;20117;-74
2022/12/01 21:03:02;;;;;;;51.07;25.33;;;;;;;2.67;100.00;102816.34;10611200;27;20027;-73
2022/12/01 21:08:02;;;;;;;51.55;26.50;;;;;;;2.67;100.00;102834.50;10628915;27;20034;-74
2022/12/01 21:18:51;;;;;;;47.53;25.40;;;;;;;2.63;100.00;102829.41;10614703;27;20072;-74
2022/12/01 21:24:07;;;;;;;51.47;25.03;;;;;;;2.50;100.00;102822.59;10626789;27;20122;-74
2022/12/01 21:29:27;;;;;;;54.90;25.70;;;;;;;2.49;100.00;102827.19;10626582;27;20762;-74
2022/12/01 21:34:28;;;;;;;45.83;24.38;;;;;;;2.42;100.00;102826.13;10627848;27;20039;-74
2022/12/01 21:39:28;;;;;;;51.20;23.73;;;;;;;2.32;100.00;102819.88;10588641;27;20065;-74
2022/12/01 21:44:35;;;;;;;52.63;23.50;;;;;;;2.32;100.00;102825.31;10623366;27;20038;-74
2022/12/01 21:49:37;;;;;;;47.72;23.75;;;;;;;2.26;100.00;102823.19;10592697;27;20046;-74
2022/12/01 21:54:38;;;;;;;54.27;26.27;;;;;;;2.19;100.00;102828.34;10604508;27;20035;-74
2022/12/01 21:59:38;;;;;;;48.33;24.77;;;;;;;2.12;100.00;102828.13;10623014;27;20460;-73
2022/12/01 22:04:39;;;;;;;57.63;28.67;;;;;;;2.12;100.00;102830.84;10623010;27;20483;-74
2022/12/01 22:09:39;;;;;;;52.37;26.10;;;;;;;2.14;100.00;102828.81;10622886;27;20051;-74
2022/12/01 22:14:40;;;;;;;61.77;29.20;;;;;;;2.19;100.00;102826.53;10603523;27;20039;-74
2022/12/01 22:19:48;;;;;;;51.83;26.60;;;;;;;2.24;100.00;102826.06;10583938;27;20042;-73
2022/12/01 22:25:21;;;;;;;54.10;25.50;;;;;;;2.16;100.00;102804.22;10531608;27;20512;-74
2022/12/01 22:30:22;;;;;;;52.65;24.75;;;;;;;2.19;100.00;102793.91;10555023;27;20442;-73
2022/12/01 22:35:48;;;;;;;57.50;28.27;;;;;;;2.35;100.00;102808.69;10595862;27;20038;-74
2022/12/01 22:41:02;;;;;;;48.13;24.00;;;;;;;2.36;100.00;102805.81;10569521;28;20132;-73
2022/12/01 22:46:30;;;;;;;46.80;23.37;;;;;;;2.25;100.00;102787.00;10580332;27;20028;-72
2022/12/01 22:51:35;;;;;;;48.10;23.00;;;;;;;2.39;100.00;102810.09;10563161;28;20050;-73